sensor_id;sensor_type;location;lat;lon;timestamp;P1;durP1;ratioP1;P2;durP2;ratioP2
78873;SDS011;68250;43.514;1.494;2023-03-05T00:01:17;39.08;;;18.58;;
78873;SDS011;68250;43.514;1.494;2023-03-05T00:03:44;38.80;;;18.67;;
78873;SDS011;68250;43.514;1.494;2023-03-05T00:06:10;43.97;;;18.67;;
78873;SDS011;68250;43.514;1.494;2023-03-05T00:08:36;42.43;;;18.60;;
78873;SDS011;68250;43.514;1.494;2023-03-05T00:11:03;39.05;;;18.17;;
78873;SDS011;68250;43.514;1.494;2023-03-05T00:13:30;40.72;;;18.85;;
78873;SDS011;68250;43.514;1.494;2023-03-05T00:15:57;42.88;;;18.67;;
78873;SDS011;68250;43.514;1.494;2023-03-05T00:18:22;44.00;;;18.90;;
78873;SDS011;68250;43.514;1.494;2023-03-05T00:20:48;43.20;;;19.75;;
78873;SDS011;68250;43.514;1.494;2023-03-05T00:23:14;42.10;;;18.65;;
78873;SDS011;68250;43.514;1.494;2023-03-05T00:25:40;43.28;;;18.98;;
78873;SDS011;68250;43.514;1.494;2023-03-05T00:28:06;41.55;;;18.63;;
78873;SDS011;68250;43.514;1.494;2023-03-05T00:30:32;41.47;;;19.25;;
78873;SDS011;68250;43.514;1.494;2023-03-05T00:32:58;38.70;;;18.13;;
78873;SDS011;68250;43.514;1.494;2023-03-05T00:35:24;41.58;;;18.40;;
78873;SDS011;68250;43.514;1.494;2023-03-05T00:37:50;39.78;;;18.50;;
78873;SDS011;68250;43.514;1.494;2023-03-05T00:40:16;40.67;;;18.27;;
78873;SDS011;68250;43.514;1.494;2023-03-05T00:42:42;41.67;;;18.02;;
78873;SDS011;68250;43.514;1.494;2023-03-05T00:45:08;42.38;;;18.52;;
78873;SDS011;68250;43.514;1.494;2023-03-05T00:47:35;44.13;;;17.83;;
78873;SDS011;68250;43.514;1.494;2023-03-05T00:50:01;39.63;;;18.52;;
78873;SDS011;68250;43.514;1.494;2023-03-05T00:52:27;36.15;;;18.05;;
78873;SDS011;68250;43.514;1.494;2023-03-05T00:54:52;39.77;;;17.63;;
78873;SDS011;68250;43.514;1.494;2023-03-05T00:57:18;39.97;;;18.02;;
78873;SDS011;68250;43.514;1.494;2023-03-05T00:59:43;40.20;;;19.07;;
78873;SDS011;68250;43.514;1.494;2023-03-05T01:02:09;37.60;;;16.85;;
78873;SDS011;68250;43.514;1.494;2023-03-05T01:04:35;45.75;;;18.65;;
78873;SDS011;68250;43.514;1.494;2023-03-05T01:07:01;39.35;;;17.65;;
78873;SDS011;68250;43.514;1.494;2023-03-05T01:09:26;38.07;;;18.37;;
78873;SDS011;68250;43.514;1.494;2023-03-05T01:11:52;41.70;;;18.43;;
78873;SDS011;68250;43.514;1.494;2023-03-05T01:14:18;38.20;;;17.35;;
78873;SDS011;68250;43.514;1.494;2023-03-05T01:16:44;41.30;;;18.05;;
78873;SDS011;68250;43.514;1.494;2023-03-05T01:19:10;40.97;;;17.65;;
78873;SDS011;68250;43.514;1.494;2023-03-05T01:21:37;39.90;;;17.87;;
78873;SDS011;68250;43.514;1.494;2023-03-05T01:24:03;42.20;;;19.05;;
78873;SDS011;68250;43.514;1.494;2023-03-05T01:26:29;37.15;;;17.35;;
78873;SDS011;68250;43.514;1.494;2023-03-05T01:28:54;39.27;;;17.13;;
78873;SDS011;68250;43.514;1.494;2023-03-05T01:31:20;38.43;;;17.30;;
78873;SDS011;68250;43.514;1.494;2023-03-05T01:33:46;42.00;;;18.25;;
78873;SDS011;68250;43.514;1.494;2023-03-05T01:36:12;43.13;;;17.47;;
78873;SDS011;68250;43.514;1.494;2023-03-05T01:38:43;38.92;;;18.23;;
78873;SDS011;68250;43.514;1.494;2023-03-05T01:41:10;38.83;;;17.50;;
78873;SDS011;68250;43.514;1.494;2023-03-05T01:43:36;38.40;;;17.63;;
78873;SDS011;68250;43.514;1.494;2023-03-05T01:46:21;41.07;;;17.83;;
78873;SDS011;68250;43.514;1.494;2023-03-05T01:54:46;41.93;;;17.90;;
78873;SDS011;68250;43.514;1.494;2023-03-05T01:57:15;42.42;;;18.58;;
78873;SDS011;68250;43.514;1.494;2023-03-05T01:59:52;40.40;;;18.05;;
78873;SDS011;68250;43.514;1.494;2023-03-05T02:02:20;37.67;;;17.67;;
78873;SDS011;68250;43.514;1.494;2023-03-05T02:04:50;38.80;;;17.43;;
78873;SDS011;68250;43.514;1.494;2023-03-05T02:07:19;36.03;;;17.27;;
78873;SDS011;68250;43.514;1.494;2023-03-05T02:09:45;39.38;;;17.65;;
78873;SDS011;68250;43.514;1.494;2023-03-05T02:12:11;39.63;;;17.70;;
78873;SDS011;68250;43.514;1.494;2023-03-05T02:14:38;40.42;;;18.95;;
78873;SDS011;68250;43.514;1.494;2023-03-05T02:17:04;40.47;;;17.58;;
78873;SDS011;68250;43.514;1.494;2023-03-05T02:19:44;47.20;;;19.33;;
78873;SDS011;68250;43.514;1.494;2023-03-05T02:22:16;41.75;;;18.73;;
78873;SDS011;68250;43.514;1.494;2023-03-05T02:24:42;42.25;;;18.95;;
78873;SDS011;68250;43.514;1.494;2023-03-05T02:27:08;51.93;;;18.60;;
78873;SDS011;68250;43.514;1.494;2023-03-05T02:29:33;39.60;;;17.55;;
78873;SDS011;68250;43.514;1.494;2023-03-05T02:32:02;41.15;;;18.35;;
78873;SDS011;68250;43.514;1.494;2023-03-05T02:34:28;43.83;;;18.60;;
78873;SDS011;68250;43.514;1.494;2023-03-05T02:36:54;39.30;;;16.88;;
78873;SDS011;68250;43.514;1.494;2023-03-05T02:39:19;40.27;;;17.97;;
78873;SDS011;68250;43.514;1.494;2023-03-05T02:41:45;41.25;;;18.52;;
78873;SDS011;68250;43.514;1.494;2023-03-05T02:44:11;43.20;;;17.67;;
78873;SDS011;68250;43.514;1.494;2023-03-05T02:46:36;42.67;;;18.85;;
78873;SDS011;68250;43.514;1.494;2023-03-05T02:49:02;39.47;;;17.90;;
78873;SDS011;68250;43.514;1.494;2023-03-05T02:51:27;42.40;;;18.17;;
78873;SDS011;68250;43.514;1.494;2023-03-05T02:53:54;39.60;;;17.48;;
78873;SDS011;68250;43.514;1.494;2023-03-05T02:56:20;44.35;;;18.52;;
78873;SDS011;68250;43.514;1.494;2023-03-05T02:58:45;43.97;;;19.73;;
78873;SDS011;68250;43.514;1.494;2023-03-05T03:01:11;42.23;;;18.33;;
78873;SDS011;68250;43.514;1.494;2023-03-05T03:03:36;43.73;;;18.27;;
78873;SDS011;68250;43.514;1.494;2023-03-05T03:06:02;40.30;;;18.05;;
78873;SDS011;68250;43.514;1.494;2023-03-05T03:08:28;41.33;;;18.38;;
78873;SDS011;68250;43.514;1.494;2023-03-05T03:10:53;43.38;;;18.67;;
78873;SDS011;68250;43.514;1.494;2023-03-05T03:13:21;44.58;;;20.40;;
78873;SDS011;68250;43.514;1.494;2023-03-05T03:15:48;43.23;;;18.20;;
78873;SDS011;68250;43.514;1.494;2023-03-05T03:18:13;41.92;;;18.77;;
78873;SDS011;68250;43.514;1.494;2023-03-05T03:20:39;43.17;;;18.33;;
78873;SDS011;68250;43.514;1.494;2023-03-05T03:23:05;40.97;;;18.30;;
78873;SDS011;68250;43.514;1.494;2023-03-05T03:25:30;45.22;;;20.20;;
78873;SDS011;68250;43.514;1.494;2023-03-05T03:27:56;42.75;;;18.48;;
78873;SDS011;68250;43.514;1.494;2023-03-05T03:30:22;39.97;;;19.40;;
78873;SDS011;68250;43.514;1.494;2023-03-05T03:32:49;40.77;;;19.67;;
78873;SDS011;68250;43.514;1.494;2023-03-05T03:35:15;41.47;;;19.10;;
78873;SDS011;68250;43.514;1.494;2023-03-05T03:37:41;42.63;;;19.85;;
78873;SDS011;68250;43.514;1.494;2023-03-05T03:40:07;45.07;;;19.30;;
78873;SDS011;68250;43.514;1.494;2023-03-05T03:42:33;48.08;;;21.38;;
78873;SDS011;68250;43.514;1.494;2023-03-05T03:44:59;67.65;;;28.00;;
78873;SDS011;68250;43.514;1.494;2023-03-05T03:47:26;51.00;;;20.40;;
78873;SDS011;68250;43.514;1.494;2023-03-05T03:49:53;105.03;;;45.75;;
78873;SDS011;68250;43.514;1.494;2023-03-05T03:52:19;53.35;;;23.08;;
78873;SDS011;68250;43.514;1.494;2023-03-05T03:54:45;46.83;;;20.77;;
78873;SDS011;68250;43.514;1.494;2023-03-05T03:57:11;43.07;;;19.20;;
78873;SDS011;68250;43.514;1.494;2023-03-05T03:59:36;44.72;;;18.80;;
78873;SDS011;68250;43.514;1.494;2023-03-05T04:02:02;39.00;;;17.53;;
78873;SDS011;68250;43.514;1.494;2023-03-05T04:04:28;45.25;;;18.25;;
78873;SDS011;68250;43.514;1.494;2023-03-05T04:06:54;43.60;;;17.60;;
78873;SDS011;68250;43.514;1.494;2023-03-05T04:09:20;39.20;;;18.02;;
78873;SDS011;68250;43.514;1.494;2023-03-05T04:11:45;42.70;;;18.45;;
78873;SDS011;68250;43.514;1.494;2023-03-05T04:14:11;40.95;;;18.25;;
78873;SDS011;68250;43.514;1.494;2023-03-05T04:16:36;41.37;;;17.87;;
78873;SDS011;68250;43.514;1.494;2023-03-05T04:19:02;43.23;;;18.43;;
78873;SDS011;68250;43.514;1.494;2023-03-05T04:21:28;43.65;;;19.35;;
78873;SDS011;68250;43.514;1.494;2023-03-05T04:23:53;46.90;;;19.67;;
78873;SDS011;68250;43.514;1.494;2023-03-05T04:26:19;45.43;;;19.60;;
78873;SDS011;68250;43.514;1.494;2023-03-05T04:28:45;44.67;;;19.35;;
78873;SDS011;68250;43.514;1.494;2023-03-05T04:31:12;45.33;;;18.60;;
78873;SDS011;68250;43.514;1.494;2023-03-05T04:33:37;41.78;;;17.90;;
78873;SDS011;68250;43.514;1.494;2023-03-05T04:36:03;43.30;;;19.87;;
78873;SDS011;68250;43.514;1.494;2023-03-05T04:38:29;45.78;;;19.65;;
78873;SDS011;68250;43.514;1.494;2023-03-05T04:40:54;42.60;;;18.70;;
78873;SDS011;68250;43.514;1.494;2023-03-05T04:43:20;42.20;;;19.08;;
78873;SDS011;68250;43.514;1.494;2023-03-05T04:45:46;42.80;;;18.43;;
78873;SDS011;68250;43.514;1.494;2023-03-05T04:48:11;39.95;;;17.48;;
78873;SDS011;68250;43.514;1.494;2023-03-05T04:50:37;40.65;;;17.75;;
78873;SDS011;68250;43.514;1.494;2023-03-05T04:53:03;40.20;;;18.33;;
78873;SDS011;68250;43.514;1.494;2023-03-05T04:55:29;46.63;;;18.77;;
78873;SDS011;68250;43.514;1.494;2023-03-05T04:57:54;40.83;;;17.95;;
78873;SDS011;68250;43.514;1.494;2023-03-05T05:00:20;44.97;;;18.97;;
78873;SDS011;68250;43.514;1.494;2023-03-05T05:02:48;47.67;;;19.65;;
78873;SDS011;68250;43.514;1.494;2023-03-05T05:05:16;44.08;;;18.73;;
78873;SDS011;68250;43.514;1.494;2023-03-05T05:07:46;40.03;;;18.30;;
78873;SDS011;68250;43.514;1.494;2023-03-05T05:10:12;40.20;;;18.35;;
78873;SDS011;68250;43.514;1.494;2023-03-05T05:12:38;41.43;;;19.07;;
78873;SDS011;68250;43.514;1.494;2023-03-05T05:15:05;42.55;;;18.55;;
78873;SDS011;68250;43.514;1.494;2023-03-05T05:17:32;43.83;;;18.92;;
78873;SDS011;68250;43.514;1.494;2023-03-05T05:20:01;39.30;;;18.07;;
78873;SDS011;68250;43.514;1.494;2023-03-05T05:22:30;41.83;;;19.00;;
78873;SDS011;68250;43.514;1.494;2023-03-05T05:24:56;43.60;;;17.75;;
78873;SDS011;68250;43.514;1.494;2023-03-05T05:27:22;41.83;;;18.93;;
78873;SDS011;68250;43.514;1.494;2023-03-05T05:29:47;41.67;;;18.05;;
78873;SDS011;68250;43.514;1.494;2023-03-05T05:32:17;45.83;;;19.00;;
78873;SDS011;68250;43.514;1.494;2023-03-05T05:34:46;41.13;;;17.70;;
78873;SDS011;68250;43.514;1.494;2023-03-05T05:37:12;41.72;;;17.77;;
78873;SDS011;68250;43.514;1.494;2023-03-05T05:39:38;41.07;;;17.70;;
78873;SDS011;68250;43.514;1.494;2023-03-05T05:42:03;38.80;;;17.35;;
78873;SDS011;68250;43.514;1.494;2023-03-05T05:44:29;37.57;;;17.37;;
78873;SDS011;68250;43.514;1.494;2023-03-05T05:46:55;41.17;;;17.90;;
78873;SDS011;68250;43.514;1.494;2023-03-05T05:49:20;38.67;;;17.77;;
78873;SDS011;68250;43.514;1.494;2023-03-05T05:51:46;40.00;;;17.83;;
78873;SDS011;68250;43.514;1.494;2023-03-05T05:54:12;42.30;;;18.42;;
78873;SDS011;68250;43.514;1.494;2023-03-05T05:56:38;46.63;;;21.50;;
78873;SDS011;68250;43.514;1.494;2023-03-05T05:59:04;51.03;;;24.02;;
78873;SDS011;68250;43.514;1.494;2023-03-05T06:01:30;42.70;;;19.53;;
78873;SDS011;68250;43.514;1.494;2023-03-05T06:03:56;43.80;;;18.23;;
78873;SDS011;68250;43.514;1.494;2023-03-05T06:06:23;39.10;;;17.30;;
78873;SDS011;68250;43.514;1.494;2023-03-05T06:08:50;38.42;;;17.08;;
78873;SDS011;68250;43.514;1.494;2023-03-05T06:11:16;38.47;;;16.60;;
78873;SDS011;68250;43.514;1.494;2023-03-05T06:13:43;41.20;;;17.90;;
78873;SDS011;68250;43.514;1.494;2023-03-05T06:16:13;42.03;;;17.30;;
78873;SDS011;68250;43.514;1.494;2023-03-05T06:18:41;40.30;;;18.13;;
78873;SDS011;68250;43.514;1.494;2023-03-05T06:21:09;40.67;;;17.77;;
78873;SDS011;68250;43.514;1.494;2023-03-05T06:23:36;39.33;;;18.43;;
78873;SDS011;68250;43.514;1.494;2023-03-05T06:26:02;36.63;;;16.38;;
78873;SDS011;68250;43.514;1.494;2023-03-05T06:28:30;37.42;;;17.27;;
78873;SDS011;68250;43.514;1.494;2023-03-05T06:31:15;43.90;;;19.90;;
78873;SDS011;68250;43.514;1.494;2023-03-05T06:33:46;43.22;;;20.00;;
78873;SDS011;68250;43.514;1.494;2023-03-05T06:36:13;44.45;;;19.42;;
78873;SDS011;68250;43.514;1.494;2023-03-05T06:38:41;40.53;;;18.73;;
78873;SDS011;68250;43.514;1.494;2023-03-05T06:41:08;50.00;;;21.53;;
78873;SDS011;68250;43.514;1.494;2023-03-05T06:43:39;40.47;;;17.58;;
78873;SDS011;68250;43.514;1.494;2023-03-05T06:48:45;41.97;;;17.50;;
78873;SDS011;68250;43.514;1.494;2023-03-05T06:51:12;45.45;;;19.70;;
78873;SDS011;68250;43.514;1.494;2023-03-05T06:53:39;50.83;;;20.80;;
78873;SDS011;68250;43.514;1.494;2023-03-05T06:56:05;46.00;;;19.50;;
78873;SDS011;68250;43.514;1.494;2023-03-05T06:58:30;51.93;;;21.50;;
78873;SDS011;68250;43.514;1.494;2023-03-05T07:00:56;45.53;;;20.10;;
78873;SDS011;68250;43.514;1.494;2023-03-05T07:03:21;40.67;;;19.13;;
78873;SDS011;68250;43.514;1.494;2023-03-05T07:05:47;43.73;;;19.27;;
78873;SDS011;68250;43.514;1.494;2023-03-05T07:08:13;46.30;;;19.92;;
78873;SDS011;68250;43.514;1.494;2023-03-05T07:10:39;43.33;;;19.17;;
78873;SDS011;68250;43.514;1.494;2023-03-05T07:13:06;40.20;;;18.60;;
78873;SDS011;68250;43.514;1.494;2023-03-05T07:15:32;41.28;;;18.88;;
78873;SDS011;68250;43.514;1.494;2023-03-05T07:17:58;40.27;;;17.80;;
78873;SDS011;68250;43.514;1.494;2023-03-05T07:20:23;39.03;;;17.97;;
78873;SDS011;68250;43.514;1.494;2023-03-05T07:22:49;41.85;;;18.08;;
78873;SDS011;68250;43.514;1.494;2023-03-05T07:25:14;42.97;;;18.53;;
78873;SDS011;68250;43.514;1.494;2023-03-05T07:27:45;40.40;;;18.05;;
78873;SDS011;68250;43.514;1.494;2023-03-05T07:30:12;45.67;;;18.77;;
78873;SDS011;68250;43.514;1.494;2023-03-05T07:32:38;41.47;;;18.10;;
78873;SDS011;68250;43.514;1.494;2023-03-05T07:35:04;42.20;;;18.73;;
78873;SDS011;68250;43.514;1.494;2023-03-05T07:37:29;42.40;;;20.35;;
78873;SDS011;68250;43.514;1.494;2023-03-05T07:39:55;47.13;;;20.10;;
78873;SDS011;68250;43.514;1.494;2023-03-05T07:42:21;45.47;;;21.13;;
78873;SDS011;68250;43.514;1.494;2023-03-05T07:44:46;47.92;;;20.38;;
78873;SDS011;68250;43.514;1.494;2023-03-05T07:47:13;43.63;;;20.27;;
78873;SDS011;68250;43.514;1.494;2023-03-05T07:49:38;47.00;;;21.20;;
78873;SDS011;68250;43.514;1.494;2023-03-05T07:52:06;49.78;;;22.77;;
78873;SDS011;68250;43.514;1.494;2023-03-05T07:54:32;48.90;;;22.07;;
78873;SDS011;68250;43.514;1.494;2023-03-05T07:57:02;48.17;;;21.13;;
78873;SDS011;68250;43.514;1.494;2023-03-05T07:59:28;45.95;;;21.13;;
78873;SDS011;68250;43.514;1.494;2023-03-05T08:01:54;46.77;;;20.53;;
78873;SDS011;68250;43.514;1.494;2023-03-05T08:04:20;44.63;;;20.63;;
78873;SDS011;68250;43.514;1.494;2023-03-05T08:06:45;49.27;;;22.90;;
78873;SDS011;68250;43.514;1.494;2023-03-05T08:09:11;46.20;;;22.02;;
78873;SDS011;68250;43.514;1.494;2023-03-05T08:11:38;48.40;;;22.30;;
78873;SDS011;68250;43.514;1.494;2023-03-05T08:14:04;47.72;;;22.55;;
78873;SDS011;68250;43.514;1.494;2023-03-05T08:16:29;48.38;;;21.83;;
78873;SDS011;68250;43.514;1.494;2023-03-05T08:18:55;47.73;;;21.17;;
78873;SDS011;68250;43.514;1.494;2023-03-05T08:21:23;46.72;;;20.40;;
78873;SDS011;68250;43.514;1.494;2023-03-05T08:23:57;46.55;;;22.48;;
78873;SDS011;68250;43.514;1.494;2023-03-05T08:26:25;46.60;;;21.63;;
78873;SDS011;68250;43.514;1.494;2023-03-05T08:28:52;44.47;;;21.30;;
78873;SDS011;68250;43.514;1.494;2023-03-05T08:31:19;49.85;;;21.48;;
78873;SDS011;68250;43.514;1.494;2023-03-05T08:33:47;46.30;;;20.17;;
78873;SDS011;68250;43.514;1.494;2023-03-05T08:36:14;38.37;;;19.13;;
78873;SDS011;68250;43.514;1.494;2023-03-05T08:38:39;40.50;;;19.27;;
78873;SDS011;68250;43.514;1.494;2023-03-05T08:41:06;40.83;;;18.88;;
78873;SDS011;68250;43.514;1.494;2023-03-05T08:43:31;44.87;;;20.50;;
78873;SDS011;68250;43.514;1.494;2023-03-05T08:45:58;41.22;;;18.73;;
78873;SDS011;68250;43.514;1.494;2023-03-05T08:48:25;42.10;;;18.35;;
78873;SDS011;68250;43.514;1.494;2023-03-05T08:50:50;52.00;;;20.80;;
78873;SDS011;68250;43.514;1.494;2023-03-05T08:53:17;42.40;;;18.25;;
78873;SDS011;68250;43.514;1.494;2023-03-05T08:55:43;42.97;;;19.00;;
78873;SDS011;68250;43.514;1.494;2023-03-05T08:58:08;41.22;;;18.48;;
78873;SDS011;68250;43.514;1.494;2023-03-05T09:00:34;38.03;;;17.77;;
78873;SDS011;68250;43.514;1.494;2023-03-05T09:02:59;37.63;;;17.00;;
78873;SDS011;68250;43.514;1.494;2023-03-05T09:05:25;39.47;;;17.40;;
78873;SDS011;68250;43.514;1.494;2023-03-05T09:07:51;38.95;;;18.13;;
78873;SDS011;68250;43.514;1.494;2023-03-05T09:10:16;37.53;;;17.70;;
78873;SDS011;68250;43.514;1.494;2023-03-05T09:12:43;39.03;;;18.25;;
78873;SDS011;68250;43.514;1.494;2023-03-05T09:15:09;41.60;;;17.13;;
78873;SDS011;68250;43.514;1.494;2023-03-05T09:17:35;34.42;;;16.60;;
78873;SDS011;68250;43.514;1.494;2023-03-05T09:20:02;34.92;;;16.67;;
78873;SDS011;68250;43.514;1.494;2023-03-05T09:22:29;39.30;;;18.40;;
78873;SDS011;68250;43.514;1.494;2023-03-05T09:24:55;37.53;;;16.80;;
78873;SDS011;68250;43.514;1.494;2023-03-05T09:27:20;39.43;;;17.13;;
78873;SDS011;68250;43.514;1.494;2023-03-05T09:29:46;38.28;;;17.65;;
78873;SDS011;68250;43.514;1.494;2023-03-05T09:32:12;36.00;;;17.20;;
78873;SDS011;68250;43.514;1.494;2023-03-05T09:34:38;36.65;;;17.15;;
78873;SDS011;68250;43.514;1.494;2023-03-05T09:37:03;37.43;;;17.63;;
78873;SDS011;68250;43.514;1.494;2023-03-05T09:39:29;36.60;;;17.60;;
78873;SDS011;68250;43.514;1.494;2023-03-05T09:50:09;35.97;;;18.05;;
78873;SDS011;68250;43.514;1.494;2023-03-05T09:58:13;36.67;;;17.15;;
78873;SDS011;68250;43.514;1.494;2023-03-05T10:00:43;38.93;;;16.57;;
78873;SDS011;68250;43.514;1.494;2023-03-05T10:08:45;36.80;;;17.60;;
78873;SDS011;68250;43.514;1.494;2023-03-05T10:11:18;36.03;;;16.48;;
78873;SDS011;68250;43.514;1.494;2023-03-05T10:13:55;34.93;;;17.37;;
78873;SDS011;68250;43.514;1.494;2023-03-05T10:16:39;35.88;;;16.70;;
78873;SDS011;68250;43.514;1.494;2023-03-05T10:22:30;34.30;;;16.58;;
78873;SDS011;68250;43.514;1.494;2023-03-05T10:25:17;35.40;;;16.30;;
78873;SDS011;68250;43.514;1.494;2023-03-05T10:27:46;37.55;;;17.80;;
78873;SDS011;68250;43.514;1.494;2023-03-05T10:33:06;36.42;;;17.20;;
78873;SDS011;68250;43.514;1.494;2023-03-05T10:38:50;33.00;;;16.20;;
78873;SDS011;68250;43.514;1.494;2023-03-05T10:44:08;32.50;;;16.27;;
78873;SDS011;68250;43.514;1.494;2023-03-05T10:46:35;35.47;;;16.83;;
78873;SDS011;68250;43.514;1.494;2023-03-05T10:49:14;35.97;;;17.27;;
78873;SDS011;68250;43.514;1.494;2023-03-05T10:51:51;37.30;;;16.27;;
78873;SDS011;68250;43.514;1.494;2023-03-05T10:54:29;34.60;;;16.55;;
78873;SDS011;68250;43.514;1.494;2023-03-05T10:59:28;35.55;;;16.92;;
78873;SDS011;68250;43.514;1.494;2023-03-05T11:02:05;33.37;;;16.33;;
78873;SDS011;68250;43.514;1.494;2023-03-05T11:04:36;35.40;;;16.58;;
78873;SDS011;68250;43.514;1.494;2023-03-05T11:10:26;38.15;;;17.48;;
78873;SDS011;68250;43.514;1.494;2023-03-05T11:12:30;37.40;;;17.73;;
78873;SDS011;68250;43.514;1.494;2023-03-05T11:15:03;32.63;;;16.77;;
78873;SDS011;68250;43.514;1.494;2023-03-05T11:17:31;34.97;;;16.10;;
78873;SDS011;68250;43.514;1.494;2023-03-05T11:25:32;45.50;;;22.83;;
78873;SDS011;68250;43.514;1.494;2023-03-05T11:27:59;37.27;;;17.00;;
78873;SDS011;68250;43.514;1.494;2023-03-05T11:30:26;34.15;;;16.73;;
78873;SDS011;68250;43.514;1.494;2023-03-05T11:35:39;34.63;;;16.60;;
78873;SDS011;68250;43.514;1.494;2023-03-05T11:38:10;32.75;;;16.90;;
78873;SDS011;68250;43.514;1.494;2023-03-05T11:40:43;35.30;;;16.70;;
78873;SDS011;68250;43.514;1.494;2023-03-05T11:43:12;35.03;;;16.85;;
78873;SDS011;68250;43.514;1.494;2023-03-05T11:45:40;33.78;;;16.92;;
78873;SDS011;68250;43.514;1.494;2023-03-05T11:48:20;35.13;;;17.07;;
78873;SDS011;68250;43.514;1.494;2023-03-05T11:50:53;34.20;;;17.15;;
78873;SDS011;68250;43.514;1.494;2023-03-05T11:53:28;35.15;;;17.25;;
78873;SDS011;68250;43.514;1.494;2023-03-05T11:58:47;35.25;;;17.17;;
78873;SDS011;68250;43.514;1.494;2023-03-05T12:01:37;36.83;;;17.43;;
78873;SDS011;68250;43.514;1.494;2023-03-05T12:04:10;39.15;;;16.40;;
78873;SDS011;68250;43.514;1.494;2023-03-05T12:06:43;32.47;;;16.73;;
78873;SDS011;68250;43.514;1.494;2023-03-05T12:09:13;36.15;;;16.90;;
78873;SDS011;68250;43.514;1.494;2023-03-05T12:17:38;35.95;;;18.50;;
78873;SDS011;68250;43.514;1.494;2023-03-05T12:20:11;30.25;;;15.90;;
78873;SDS011;68250;43.514;1.494;2023-03-05T12:22:42;35.72;;;16.98;;
78873;SDS011;68250;43.514;1.494;2023-03-05T12:27:59;34.53;;;15.88;;
78873;SDS011;68250;43.514;1.494;2023-03-05T12:33:29;33.13;;;15.50;;
78873;SDS011;68250;43.514;1.494;2023-03-05T12:38:45;32.50;;;16.15;;
78873;SDS011;68250;43.514;1.494;2023-03-05T12:46:29;33.25;;;15.18;;
78873;SDS011;68250;43.514;1.494;2023-03-05T12:51:50;30.38;;;15.45;;
78873;SDS011;68250;43.514;1.494;2023-03-05T12:54:35;27.80;;;14.85;;
78873;SDS011;68250;43.514;1.494;2023-03-05T12:57:05;29.50;;;15.20;;
78873;SDS011;68250;43.514;1.494;2023-03-05T12:59:47;30.77;;;15.20;;
78873;SDS011;68250;43.514;1.494;2023-03-05T13:02:18;31.80;;;15.23;;
78873;SDS011;68250;43.514;1.494;2023-03-05T13:04:46;30.65;;;16.00;;
78873;SDS011;68250;43.514;1.494;2023-03-05T13:07:13;28.30;;;14.88;;
78873;SDS011;68250;43.514;1.494;2023-03-05T13:09:40;29.92;;;15.40;;
78873;SDS011;68250;43.514;1.494;2023-03-05T13:12:19;31.20;;;15.10;;
78873;SDS011;68250;43.514;1.494;2023-03-05T13:14:55;27.83;;;14.50;;
78873;SDS011;68250;43.514;1.494;2023-03-05T13:20:32;30.27;;;15.40;;
78873;SDS011;68250;43.514;1.494;2023-03-05T13:25:33;30.73;;;14.90;;
78873;SDS011;68250;43.514;1.494;2023-03-05T13:28:17;28.92;;;14.60;;
78873;SDS011;68250;43.514;1.494;2023-03-05T13:31:09;29.35;;;14.82;;
78873;SDS011;68250;43.514;1.494;2023-03-05T13:33:34;29.67;;;14.25;;
78873;SDS011;68250;43.514;1.494;2023-03-05T13:36:00;27.25;;;14.27;;
78873;SDS011;68250;43.514;1.494;2023-03-05T13:38:39;30.02;;;14.50;;
78873;SDS011;68250;43.514;1.494;2023-03-05T13:43:50;24.83;;;13.27;;
78873;SDS011;68250;43.514;1.494;2023-03-05T13:46:33;27.10;;;13.60;;
78873;SDS011;68250;43.514;1.494;2023-03-05T13:49:15;24.35;;;13.15;;
78873;SDS011;68250;43.514;1.494;2023-03-05T13:51:44;26.35;;;13.00;;
78873;SDS011;68250;43.514;1.494;2023-03-05T13:54:15;26.30;;;13.55;;
78873;SDS011;68250;43.514;1.494;2023-03-05T13:56:52;25.70;;;12.90;;
78873;SDS011;68250;43.514;1.494;2023-03-05T13:59:26;24.88;;;12.25;;
78873;SDS011;68250;43.514;1.494;2023-03-05T14:01:55;25.00;;;13.05;;
78873;SDS011;68250;43.514;1.494;2023-03-05T14:04:26;24.63;;;13.43;;
78873;SDS011;68250;43.514;1.494;2023-03-05T14:06:55;29.40;;;13.18;;
78873;SDS011;68250;43.514;1.494;2023-03-05T14:09:23;29.90;;;13.77;;
78873;SDS011;68250;43.514;1.494;2023-03-05T14:14:23;29.05;;;14.13;;
78873;SDS011;68250;43.514;1.494;2023-03-05T14:16:49;28.75;;;13.73;;
78873;SDS011;68250;43.514;1.494;2023-03-05T14:22:00;24.85;;;12.32;;
78873;SDS011;68250;43.514;1.494;2023-03-05T14:24:26;26.27;;;12.70;;
78873;SDS011;68250;43.514;1.494;2023-03-05T14:27:05;23.77;;;12.40;;
78873;SDS011;68250;43.514;1.494;2023-03-05T14:29:37;24.77;;;12.50;;
78873;SDS011;68250;43.514;1.494;2023-03-05T14:32:17;24.80;;;12.70;;
78873;SDS011;68250;43.514;1.494;2023-03-05T14:35:02;25.65;;;13.00;;
78873;SDS011;68250;43.514;1.494;2023-03-05T14:37:32;26.27;;;13.70;;
78873;SDS011;68250;43.514;1.494;2023-03-05T14:40:03;27.15;;;13.60;;
78873;SDS011;68250;43.514;1.494;2023-03-05T14:45:39;24.40;;;12.65;;
78873;SDS011;68250;43.514;1.494;2023-03-05T14:48:07;23.35;;;13.02;;
78873;SDS011;68250;43.514;1.494;2023-03-05T14:50:36;27.65;;;14.02;;
78873;SDS011;68250;43.514;1.494;2023-03-05T14:53:07;29.00;;;14.05;;
78873;SDS011;68250;43.514;1.494;2023-03-05T14:55:34;25.75;;;13.30;;
78873;SDS011;68250;43.514;1.494;2023-03-05T14:58:03;24.95;;;12.93;;
78873;SDS011;68250;43.514;1.494;2023-03-05T15:00:31;24.85;;;12.73;;
78873;SDS011;68250;43.514;1.494;2023-03-05T15:02:57;26.50;;;13.30;;
78873;SDS011;68250;43.514;1.494;2023-03-05T15:05:23;28.20;;;14.25;;
78873;SDS011;68250;43.514;1.494;2023-03-05T15:07:49;30.02;;;14.05;;
78873;SDS011;68250;43.514;1.494;2023-03-05T15:10:16;28.95;;;13.95;;
78873;SDS011;68250;43.514;1.494;2023-03-05T15:12:43;28.38;;;14.25;;
78873;SDS011;68250;43.514;1.494;2023-03-05T15:15:10;29.27;;;13.27;;
78873;SDS011;68250;43.514;1.494;2023-03-05T15:17:39;24.00;;;12.80;;
78873;SDS011;68250;43.514;1.494;2023-03-05T15:20:15;23.60;;;12.23;;
78873;SDS011;68250;43.514;1.494;2023-03-05T15:22:42;27.40;;;13.25;;
78873;SDS011;68250;43.514;1.494;2023-03-05T15:25:08;29.42;;;13.75;;
78873;SDS011;68250;43.514;1.494;2023-03-05T15:27:34;23.27;;;12.97;;
78873;SDS011;68250;43.514;1.494;2023-03-05T15:30:00;26.42;;;12.50;;
78873;SDS011;68250;43.514;1.494;2023-03-05T15:32:26;27.70;;;12.97;;
78873;SDS011;68250;43.514;1.494;2023-03-05T15:34:54;26.52;;;13.02;;
78873;SDS011;68250;43.514;1.494;2023-03-05T15:37:21;24.52;;;13.05;;
78873;SDS011;68250;43.514;1.494;2023-03-05T15:39:46;25.75;;;12.65;;
78873;SDS011;68250;43.514;1.494;2023-03-05T15:42:12;27.03;;;11.87;;
78873;SDS011;68250;43.514;1.494;2023-03-05T15:44:38;27.33;;;14.50;;
78873;SDS011;68250;43.514;1.494;2023-03-05T15:47:04;26.15;;;14.02;;
78873;SDS011;68250;43.514;1.494;2023-03-05T15:49:30;27.17;;;13.13;;
78873;SDS011;68250;43.514;1.494;2023-03-05T15:51:56;24.63;;;12.40;;
78873;SDS011;68250;43.514;1.494;2023-03-05T15:54:22;27.80;;;12.90;;
78873;SDS011;68250;43.514;1.494;2023-03-05T15:56:47;24.57;;;12.73;;
78873;SDS011;68250;43.514;1.494;2023-03-05T15:59:13;23.35;;;12.85;;
78873;SDS011;68250;43.514;1.494;2023-03-05T16:01:39;25.47;;;12.40;;